createdAt,value
2018-07-15T00:00:36.465Z,101295.11
2018-07-15T00:03:03.650Z,101293.19
2018-07-15T00:05:31.196Z,101289.72
2018-07-15T00:07:58.560Z,101286.41
2018-07-15T00:10:25.665Z,101293.19
2018-07-15T00:12:53.089Z,101292.20
2018-07-15T00:15:20.214Z,101295.21
2018-07-15T00:17:47.381Z,101293.94
2018-07-15T00:20:14.497Z,101293.52
2018-07-15T00:22:41.819Z,101290.09
2018-07-15T00:25:09.603Z,101292.69
2018-07-15T00:27:36.988Z,101290.82
2018-07-15T00:30:05.023Z,101289.52
2018-07-15T00:32:32.197Z,101290.23
2018-07-15T00:34:59.332Z,101288.56
2018-07-15T00:37:26.454Z,101285.75
2018-07-15T00:39:53.625Z,101288.66
2018-07-15T00:42:20.859Z,101282.99
2018-07-15T00:44:48.007Z,101281.73
2018-07-15T00:47:15.154Z,101280.17
2018-07-15T00:49:42.697Z,101278.53
2018-07-15T00:52:10.094Z,101276.77
2018-07-15T00:54:37.233Z,101277.48
2018-07-15T00:57:04.410Z,101283.77
2018-07-15T00:59:31.541Z,101276.77
2018-07-15T01:01:58.924Z,101280.21
2018-07-15T01:04:26.100Z,101281.83
2018-07-15T01:06:53.261Z,101290.59
2018-07-15T01:09:20.407Z,101285.14
2018-07-15T01:11:47.599Z,101288.78
2018-07-15T01:14:14.745Z,101287.87
2018-07-15T01:16:41.877Z,101286.92
2018-07-15T01:19:09.532Z,101286.22
2018-07-15T01:21:36.987Z,101285.66
2018-07-15T01:24:04.297Z,101283.45
2018-07-15T01:26:31.512Z,101280.69
2018-07-15T01:28:58.745Z,101285.37
2018-07-15T01:31:25.887Z,101286.95
2018-07-15T01:33:53.333Z,101292.91
2018-07-15T01:36:20.461Z,101288.09
2018-07-15T01:38:47.634Z,101293.20
2018-07-15T01:41:23.694Z,101294.42
2018-07-15T01:43:50.855Z,101289.73
2018-07-15T01:46:18.124Z,101287.96
2018-07-15T01:48:45.785Z,101286.31
2018-07-15T01:51:12.960Z,101289.00
2018-07-15T01:53:40.092Z,101291.56
2018-07-15T01:56:07.287Z,101289.34
2018-07-15T01:58:34.786Z,101288.14
2018-07-15T02:01:02.065Z,101283.33
2018-07-15T02:03:29.358Z,101277.91
2018-07-15T02:05:56.507Z,101281.28
2018-07-15T02:08:23.625Z,101283.84
2018-07-15T02:10:50.833Z,101289.64
2018-07-15T02:13:18.195Z,101287.69
2018-07-15T02:15:45.460Z,101289.95
2018-07-15T02:18:12.697Z,101287.95
2018-07-15T02:20:40.075Z,101286.75
2018-07-15T02:23:07.341Z,101288.44
2018-07-15T02:25:34.649Z,101289.73
2018-07-15T02:28:02.125Z,101281.36
2018-07-15T02:30:29.422Z,101281.92
2018-07-15T02:32:56.754Z,101288.53
2018-07-15T02:35:24.028Z,101278.05
2018-07-15T02:37:51.256Z,101280.27
2018-07-15T02:40:18.507Z,101282.03
2018-07-15T02:42:46.073Z,101279.52
2018-07-15T02:45:13.333Z,101278.05
2018-07-15T02:47:40.579Z,101212.83
2018-07-15T02:50:08.128Z,101280.20
2018-07-15T02:52:35.409Z,101280.28
2018-07-15T02:55:02.725Z,101093.45
2018-07-15T02:57:30.335Z,101274.39
2018-07-15T02:59:57.603Z,101276.77
2018-07-15T03:02:24.877Z,101275.69
2018-07-15T03:04:52.183Z,101275.20
2018-07-15T03:07:19.515Z,101270.56
2018-07-15T03:09:46.773Z,101272.81
2018-07-15T03:12:14.188Z,101273.17
2018-07-15T03:14:41.452Z,101270.16
2018-07-15T03:17:08.730Z,101266.86
2018-07-15T03:19:35.998Z,101269.92
2018-07-15T03:22:04.784Z,101265.48
2018-07-15T03:24:32.080Z,101274.33
2018-07-15T03:26:59.322Z,101271.98
2018-07-15T03:29:26.611Z,101271.06
2018-07-15T03:31:53.995Z,101277.48
2018-07-15T03:34:21.293Z,101277.23
2018-07-15T03:36:48.582Z,101277.16
2018-07-15T03:39:16.253Z,101274.02
2018-07-15T03:41:43.523Z,101276.84
2018-07-15T03:44:10.862Z,101276.78
2018-07-15T03:46:38.128Z,101265.48
2018-07-15T03:49:05.460Z,101277.94
2018-07-15T03:51:32.730Z,101275.69
2018-07-15T03:54:00.033Z,101277.37
2018-07-15T03:56:27.389Z,101276.42
2018-07-15T03:58:54.776Z,101273.06
2018-07-15T04:01:22.025Z,101272.84
2018-07-15T04:03:49.395Z,101277.53
2018-07-15T04:06:17.220Z,101273.63
2018-07-15T04:08:44.701Z,101280.55
2018-07-15T04:11:12.121Z,101273.61
2018-07-15T04:13:39.473Z,101279.28
2018-07-15T04:16:06.862Z,101276.09
2018-07-15T04:18:34.111Z,101279.08
2018-07-15T04:21:01.389Z,101278.78
2018-07-15T04:23:30.459Z,101284.55
2018-07-15T04:25:57.820Z,101285.30
2018-07-15T04:28:25.400Z,101285.61
2018-07-15T04:30:52.618Z,101283.53
2018-07-15T04:33:19.999Z,101280.20
2018-07-15T04:35:47.279Z,101275.88
2018-07-15T04:38:14.797Z,101271.55
2018-07-15T04:40:42.047Z,101273.23
2018-07-15T04:43:09.531Z,101272.53
2018-07-15T04:45:36.847Z,101277.45
2018-07-15T04:48:04.575Z,101277.39
2018-07-15T04:50:31.837Z,101273.77
2018-07-15T04:52:59.087Z,101275.44
2018-07-15T04:55:26.337Z,101276.22
2018-07-15T04:57:53.595Z,101276.80
2018-07-15T05:00:20.863Z,101278.84
2018-07-15T05:02:48.087Z,101277.41
2018-07-15T05:05:15.940Z,101286.59
2018-07-15T05:07:43.247Z,101276.86
2018-07-15T05:10:10.486Z,101277.94
2018-07-15T05:12:37.860Z,101288.38
2018-07-15T05:15:05.215Z,101289.08
2018-07-15T05:17:32.455Z,101282.01
2018-07-15T05:20:00.084Z,101286.07
2018-07-15T05:22:27.347Z,101286.16
2018-07-15T05:24:54.644Z,101289.93
2018-07-15T05:27:21.925Z,101288.86
2018-07-15T05:29:49.221Z,101290.32
2018-07-15T05:32:16.759Z,101288.58
2018-07-15T05:34:43.962Z,101282.94
2018-07-15T05:37:11.172Z,101280.09
2018-07-15T05:39:38.399Z,101289.13
2018-07-15T05:42:05.575Z,101289.21
2018-07-15T05:44:32.738Z,101293.08
2018-07-15T05:46:59.950Z,101297.98
2018-07-15T05:49:27.151Z,101293.09
2018-07-15T05:51:54.404Z,101293.25
2018-07-15T05:54:21.570Z,101291.83
2018-07-15T05:56:48.789Z,101296.73
2018-07-15T05:59:15.936Z,101298.12
2018-07-15T06:01:43.056Z,101299.55
2018-07-15T06:04:10.315Z,101300.71
2018-07-15T06:06:37.474Z,101297.75
2018-07-15T06:09:05.845Z,101306.98
2018-07-15T06:11:33.014Z,101308.73
2018-07-15T06:14:00.244Z,101308.83
2018-07-15T06:16:27.457Z,101311.09
2018-07-15T06:18:54.626Z,101310.17
2018-07-15T06:21:21.843Z,101311.22
2018-07-15T06:23:49.044Z,101306.88
2018-07-15T06:26:16.208Z,101314.10
2018-07-15T06:28:43.522Z,101315.33
2018-07-15T06:31:10.730Z,101311.80
2018-07-15T06:33:38.113Z,101308.81
2018-07-15T06:36:05.354Z,101306.84
2018-07-15T06:38:32.537Z,101310.48
2018-07-15T06:40:59.759Z,101316.50
2018-07-15T06:43:26.947Z,101313.98
2018-07-15T06:45:54.104Z,101312.28
2018-07-15T06:48:21.269Z,101317.31
2018-07-15T06:50:48.437Z,101315.34
2018-07-15T06:53:15.931Z,101317.33
2018-07-15T06:55:43.131Z,101315.12
2018-07-15T06:58:10.326Z,101316.67
2018-07-15T07:00:37.439Z,101316.73
2018-07-15T07:03:04.659Z,101318.53
2018-07-15T07:05:31.813Z,101316.00
2018-07-15T07:07:59.133Z,101320.41
2018-07-15T07:10:26.413Z,101315.66
2018-07-15T07:12:53.851Z,101325.00
2018-07-15T07:15:21.002Z,101314.30
2018-07-15T07:17:48.148Z,101311.44
2018-07-15T07:20:15.314Z,101315.23
2018-07-15T07:22:42.345Z,101312.81
2018-07-15T07:25:09.376Z,101311.42
2018-07-15T07:27:36.386Z,101315.57
2018-07-15T07:30:03.518Z,101317.91
2018-07-15T07:32:30.627Z,101315.69
2018-07-15T07:34:57.837Z,101323.17
2018-07-15T07:37:25.113Z,101322.78
2018-07-15T07:39:52.265Z,101319.44
2018-07-15T07:42:19.559Z,101317.64
2018-07-15T07:44:46.667Z,101314.66
2018-07-15T07:47:14.361Z,101313.04
2018-07-15T07:49:41.619Z,101312.23
2018-07-15T07:52:09.688Z,101314.39
2018-07-15T07:54:36.708Z,101315.48
2018-07-15T07:57:03.871Z,101310.91
2018-07-15T07:59:30.997Z,101304.49
2018-07-15T08:01:58.388Z,101307.63
2018-07-15T08:04:25.401Z,101309.16
2018-07-15T08:06:52.648Z,101304.25
2018-07-15T08:09:19.804Z,101306.84
2018-07-15T08:11:46.853Z,101304.69
2018-07-15T08:14:13.865Z,101306.34
2018-07-15T08:16:41.665Z,101303.69
2018-07-15T08:19:08.754Z,101302.39
2018-07-15T08:21:35.782Z,101309.86
2018-07-15T08:24:03.131Z,101309.97
2018-07-15T08:26:30.221Z,101314.08
2018-07-15T08:28:57.316Z,101314.70
2018-07-15T08:31:24.499Z,101312.23
2018-07-15T08:33:51.577Z,101309.73
2018-07-15T08:36:18.708Z,101311.41
2018-07-15T08:38:45.808Z,101306.55
2018-07-15T08:41:12.815Z,101302.94
2018-07-15T08:43:39.939Z,101303.91
2018-07-15T08:46:07.745Z,101305.00
2018-07-15T08:48:34.815Z,101300.02
2018-07-15T08:51:02.241Z,101304.06
2018-07-15T08:53:29.314Z,101301.97
2018-07-15T08:55:56.352Z,101302.23
2018-07-15T08:58:23.365Z,101307.39
2018-07-15T09:00:50.356Z,101306.45
2018-07-15T09:03:17.508Z,101306.29
2018-07-15T09:05:44.807Z,101301.41
2018-07-15T09:08:11.812Z,101298.70
2018-07-15T09:10:38.832Z,101297.63
2018-07-15T09:13:05.853Z,101301.52
2018-07-15T09:15:32.987Z,101302.91
2018-07-15T09:18:00.024Z,101309.94
2018-07-15T09:20:27.094Z,101299.41
2018-07-15T09:22:54.173Z,101300.27
2018-07-15T09:25:21.204Z,101309.17
2018-07-15T09:27:48.268Z,101307.34
2018-07-15T09:30:15.246Z,101305.11
2018-07-15T09:32:42.348Z,101303.11
2018-07-15T09:35:09.540Z,101305.34
2018-07-15T09:37:36.640Z,101306.42
2018-07-15T09:48:48.784Z,101301.14
2018-07-15T09:51:15.805Z,101299.41
2018-07-15T09:53:42.835Z,101294.47
2018-07-15T09:56:09.862Z,101300.20
2018-07-15T09:58:36.876Z,101298.28
2018-07-15T10:01:03.904Z,101300.86
2018-07-15T10:03:30.904Z,101295.08
2018-07-15T10:05:57.921Z,101293.69
2018-07-15T10:08:24.968Z,101293.18
2018-07-15T10:10:52.079Z,101290.66
2018-07-15T10:21:32.817Z,101290.58
2018-07-15T10:23:59.941Z,101293.98
2018-07-15T10:26:26.949Z,101287.11
2018-07-15T10:28:53.937Z,101290.81
2018-07-15T10:31:20.944Z,101289.44
2018-07-15T10:33:47.985Z,101283.50
2018-07-15T10:36:15.084Z,101281.14
2018-07-15T10:38:42.196Z,101281.90
2018-07-15T10:41:09.508Z,101287.25
2018-07-15T10:43:36.732Z,101276.05
2018-07-15T10:46:03.756Z,101275.03
2018-07-15T10:48:30.807Z,101276.62
2018-07-15T10:50:57.788Z,101272.19
2018-07-15T10:53:24.884Z,101276.81
2018-07-15T10:55:52.063Z,101282.30
2018-07-15T10:58:19.097Z,101274.45
2018-07-15T11:00:46.128Z,101273.23
2018-07-15T11:03:13.258Z,101275.53
2018-07-15T11:05:40.273Z,101270.53
2018-07-15T11:08:07.360Z,101273.64
2018-07-15T11:10:34.470Z,101276.68
2018-07-15T11:13:01.504Z,101268.33
2018-07-15T11:15:28.584Z,101267.41
2018-07-15T11:17:55.730Z,101267.03
2018-07-15T11:20:22.769Z,101265.92
2018-07-15T11:22:49.921Z,101268.01
2018-07-15T11:25:16.941Z,101266.89
2018-07-15T11:27:44.205Z,101261.53
2018-07-15T11:30:11.229Z,101264.16
2018-07-15T11:32:38.239Z,101264.02
2018-07-15T11:35:05.641Z,101261.96
2018-07-15T11:37:32.694Z,101264.53
2018-07-15T11:39:59.692Z,101262.28
2018-07-15T11:42:26.794Z,101260.22
2018-07-15T11:44:53.830Z,101253.63
2018-07-15T11:47:20.843Z,101253.75
2018-07-15T11:49:48.043Z,101250.39
2018-07-15T11:52:15.203Z,101249.02
2018-07-15T11:54:42.304Z,101252.94
2018-07-15T11:57:09.472Z,101246.73
2018-07-15T12:00:04.786Z,101246.39
2018-07-15T12:02:31.789Z,101242.25
2018-07-15T12:04:58.792Z,101251.26
2018-07-15T12:07:26.046Z,101241.97
2018-07-15T12:09:53.052Z,101238.47
2018-07-15T12:12:20.046Z,101241.85
2018-07-15T12:14:47.134Z,101238.95
2018-07-15T12:17:14.133Z,101237.22
2018-07-15T12:19:41.482Z,101238.42
2018-07-15T12:22:08.477Z,101225.27
2018-07-15T12:24:35.488Z,101226.02
2018-07-15T12:27:02.628Z,101227.31
2018-07-15T12:29:29.686Z,101224.74
2018-07-15T12:31:56.721Z,101222.53
2018-07-15T12:34:23.836Z,101220.03
2018-07-15T12:36:50.968Z,101215.08
2018-07-15T12:39:18.145Z,101215.68
2018-07-15T12:41:45.161Z,101217.44
2018-07-15T12:44:12.193Z,101212.77
2018-07-15T12:46:39.372Z,101208.58
2018-07-15T12:49:06.559Z,101201.97
2018-07-15T12:51:33.569Z,101200.81
2018-07-15T12:54:00.593Z,101201.18
2018-07-15T12:56:28.443Z,101200.26
2018-07-15T12:58:55.532Z,101198.04
2018-07-15T13:01:22.942Z,101193.56
2018-07-15T13:03:50.050Z,101191.02
2018-07-15T13:06:17.084Z,101181.93
2018-07-15T13:08:44.100Z,101184.31
2018-07-15T13:11:11.217Z,101180.15
2018-07-15T13:13:38.303Z,101184.64
2018-07-15T13:16:05.334Z,101176.04
2018-07-15T13:18:32.657Z,101171.12
2018-07-15T13:20:59.674Z,101172.95
2018-07-15T13:23:27.051Z,101164.72
2018-07-15T13:25:54.057Z,101167.67
2018-07-15T13:28:21.092Z,101169.36
2018-07-15T13:30:48.103Z,101159.58
2018-07-15T13:33:15.108Z,101161.63
2018-07-15T13:35:42.409Z,101154.39
2018-07-15T13:38:09.436Z,101153.78
2018-07-15T13:40:36.478Z,101155.70
2018-07-15T13:43:03.756Z,101157.78
2018-07-15T13:45:30.781Z,101155.87
2018-07-15T13:47:57.793Z,101148.15
2018-07-15T13:50:24.839Z,101156.47
2018-07-15T13:52:51.854Z,101150.20
2018-07-15T13:55:18.952Z,101143.78
2018-07-15T13:57:46.072Z,101143.66
2018-07-15T14:00:13.202Z,101111.39
2018-07-15T14:02:40.316Z,101144.89
2018-07-15T14:05:07.512Z,101137.33
2018-07-15T14:07:34.509Z,101140.24
2018-07-15T14:10:01.673Z,101146.70
2018-07-15T14:12:29.034Z,101136.05
2018-07-15T14:14:56.079Z,101134.31
2018-07-15T14:17:23.122Z,101136.20
2018-07-15T14:19:50.139Z,101131.75
2018-07-15T14:22:17.184Z,101136.40
2018-07-15T14:24:44.215Z,101131.05
2018-07-15T14:27:11.618Z,101128.59
2018-07-15T14:29:38.617Z,101130.86
2018-07-15T14:32:05.657Z,101119.70
2018-07-15T14:34:32.742Z,101116.61
2018-07-15T14:36:59.841Z,101115.86
2018-07-15T14:39:36.378Z,101116.14
2018-07-15T14:42:03.952Z,101112.92
2018-07-15T14:44:31.032Z,101118.23
2018-07-15T14:46:58.049Z,101116.95
2018-07-15T14:49:25.081Z,101115.36
2018-07-15T14:51:52.534Z,101117.06
2018-07-15T14:54:19.577Z,101111.89
2018-07-15T14:56:46.613Z,101111.47
2018-07-15T14:59:13.622Z,101101.63
2018-07-15T15:01:40.745Z,101099.51
2018-07-15T15:04:07.916Z,101105.09
2018-07-15T15:06:35.063Z,101099.48
2018-07-15T15:09:02.238Z,101103.25
2018-07-15T15:11:29.378Z,101094.73
2018-07-15T15:13:56.423Z,101098.62
2018-07-15T15:16:23.502Z,101093.93
2018-07-15T15:18:50.524Z,101092.50
2018-07-15T15:21:18.259Z,101096.85
2018-07-15T15:23:48.831Z,101089.92
2018-07-15T15:26:15.899Z,101090.22
2018-07-15T15:28:43.785Z,101089.38
2018-07-15T15:31:12.217Z,101088.55
2018-07-15T15:33:41.539Z,101090.70
2018-07-15T15:36:09.233Z,101087.63
2018-07-15T15:38:36.995Z,101081.70
2018-07-15T15:41:04.874Z,101078.22
2018-07-15T15:43:34.114Z,101081.66
2018-07-15T15:46:01.143Z,101076.45
2018-07-15T15:48:28.897Z,101071.26
2018-07-15T15:50:57.259Z,101075.54
2018-07-15T15:53:26.678Z,101068.64
2018-07-15T15:55:53.781Z,101068.27
2018-07-15T15:58:23.273Z,101065.45
2018-07-15T16:00:50.340Z,101066.98
2018-07-15T16:03:18.589Z,101056.83
2018-07-15T16:05:47.100Z,101048.03
2018-07-15T16:08:15.584Z,101047.29
2018-07-15T16:10:43.308Z,101047.32
2018-07-15T16:13:12.198Z,101041.81
2018-07-15T16:15:40.706Z,101038.42
2018-07-15T16:18:09.067Z,101040.02
2018-07-15T16:20:38.976Z,101036.33
2018-07-15T16:23:08.331Z,101032.41
2018-07-15T16:25:36.689Z,101025.27
2018-07-15T16:28:08.220Z,101020.56
2018-07-15T16:30:37.427Z,101019.68
2018-07-15T16:33:06.933Z,101019.20
2018-07-15T16:35:36.355Z,101025.01
2018-07-15T16:38:11.368Z,101016.66
2018-07-15T16:40:43.378Z,101013.42
2018-07-15T16:43:14.622Z,101018.04
2018-07-15T16:45:47.026Z,101013.39
2018-07-15T16:48:17.028Z,101014.03
2018-07-15T16:50:50.632Z,101013.72
2018-07-15T16:53:20.169Z,101005.58
2018-07-15T16:55:52.727Z,101005.47
2018-07-15T16:58:22.560Z,101011.43
2018-07-15T17:00:53.532Z,101006.30
2018-07-15T17:03:24.171Z,101003.61
2018-07-15T17:05:54.120Z,101004.44
2018-07-15T17:08:26.390Z,101013.33
2018-07-15T17:10:57.006Z,101005.83
2018-07-15T17:13:29.588Z,101003.33
2018-07-15T17:15:59.215Z,101007.47
2018-07-15T17:18:29.918Z,100997.16
2018-07-15T17:21:02.331Z,100996.09
2018-07-15T17:23:32.807Z,101001.65
2018-07-15T17:26:03.753Z,100998.58
2018-07-15T17:28:36.917Z,101002.97
2018-07-15T17:31:08.248Z,101004.68
2018-07-15T17:33:40.252Z,101001.41
2018-07-15T17:36:09.812Z,101002.27
2018-07-15T17:38:41.659Z,100997.95
2018-07-15T17:41:14.391Z,101003.16
2018-07-15T17:43:47.121Z,100997.98
2018-07-15T17:46:19.931Z,100999.27
2018-07-15T17:48:55.676Z,100997.14
2018-07-15T17:51:27.511Z,101002.27
2018-07-15T17:53:58.934Z,100999.23
2018-07-15T17:56:29.770Z,101003.84
2018-07-15T17:59:02.194Z,100998.28
2018-07-15T18:01:34.770Z,101001.58
2018-07-15T18:04:05.042Z,101003.28
2018-07-15T18:06:36.059Z,101001.09
2018-07-15T18:09:09.975Z,101005.75
2018-07-15T18:11:46.677Z,101003.15
2018-07-15T18:14:18.090Z,101001.39
2018-07-15T18:16:51.058Z,101009.38
2018-07-15T18:19:21.540Z,101003.25
2018-07-15T18:21:52.056Z,101006.14
2018-07-15T18:24:23.863Z,101013.73
2018-07-15T18:26:53.550Z,101009.30
2018-07-15T18:29:25.462Z,101017.80
2018-07-15T18:31:55.947Z,101010.91
2018-07-15T18:34:26.941Z,101016.50
2018-07-15T18:36:57.837Z,101009.20
2018-07-15T18:39:30.126Z,101018.95
2018-07-15T18:42:00.533Z,101017.19
2018-07-15T18:44:30.226Z,101019.69
2018-07-15T18:47:00.541Z,101030.61
2018-07-15T18:49:30.149Z,101030.88
2018-07-15T18:51:59.561Z,101031.14
2018-07-15T18:54:29.267Z,101032.67
2018-07-15T18:56:59.528Z,101038.69
2018-07-15T18:59:30.115Z,101033.03
2018-07-15T19:02:02.307Z,101039.31
2018-07-15T19:04:32.040Z,101034.05
2018-07-15T19:07:03.848Z,101040.80
2018-07-15T19:09:35.398Z,101033.36
2018-07-15T19:12:05.372Z,101034.02
2018-07-15T19:14:35.079Z,101040.39
2018-07-15T19:17:05.780Z,101037.92
2018-07-15T19:19:35.424Z,101039.38
2018-07-15T19:22:05.619Z,101041.28
2018-07-15T19:24:36.217Z,101043.06
2018-07-15T19:27:06.417Z,101044.11
2018-07-15T19:29:36.913Z,101043.39
2018-07-15T19:32:04.441Z,101040.27
2018-07-15T19:34:33.952Z,101042.39
2018-07-15T19:37:02.930Z,101045.14
2018-07-15T19:39:31.728Z,101043.25
2018-07-15T19:42:02.005Z,101052.45
2018-07-15T19:44:31.254Z,101048.78
2018-07-15T19:47:00.354Z,101048.75
2018-07-15T19:49:32.103Z,101050.37
2018-07-15T19:52:01.449Z,101048.78
2018-07-15T19:54:31.055Z,101046.96
2018-07-15T19:57:00.144Z,101047.81
2018-07-15T19:59:29.260Z,101056.58
2018-07-15T20:01:58.794Z,101053.20
2018-07-15T20:04:27.859Z,101059.64
2018-07-15T20:06:57.370Z,101059.55
2018-07-15T20:09:26.726Z,101060.69
2018-07-15T20:11:55.744Z,101060.56
2018-07-15T20:14:29.392Z,101070.63
2018-07-15T20:16:56.778Z,101068.79
2018-07-15T20:19:25.822Z,101070.76
2018-07-15T20:21:56.513Z,101068.98
2018-07-15T20:24:25.955Z,101068.75
2018-07-15T20:26:54.875Z,101068.69
2018-07-15T20:29:23.840Z,101067.66
2018-07-15T20:31:54.506Z,101066.44
2018-07-15T20:34:28.718Z,101069.95
2018-07-15T20:36:57.883Z,101063.48
2018-07-15T20:39:29.998Z,101061.13
2018-07-15T20:41:59.980Z,101071.56
2018-07-15T20:44:30.155Z,101069.02
2018-07-15T20:46:59.331Z,101067.34
2018-07-15T20:49:28.326Z,101071.06
2018-07-15T20:51:58.588Z,101072.68
2018-07-15T20:54:28.134Z,101073.02
2018-07-15T20:56:57.300Z,101071.39
2018-07-15T20:59:26.532Z,101073.47
2018-07-15T21:01:56.061Z,101080.31
2018-07-15T21:04:25.410Z,101072.98
2018-07-15T21:06:54.453Z,101069.55
2018-07-15T21:09:24.538Z,101067.69
2018-07-15T21:11:53.660Z,101064.46
2018-07-15T21:14:23.117Z,101071.37
2018-07-15T21:16:52.463Z,101073.38
2018-07-15T21:19:22.890Z,101072.82
2018-07-15T21:21:50.113Z,101076.75
2018-07-15T21:24:19.359Z,101074.55
2018-07-15T21:26:48.396Z,101071.03
2018-07-15T21:29:18.596Z,101075.84
2018-07-15T21:31:45.821Z,101076.08
2018-07-15T21:34:13.169Z,101078.77
2018-07-15T21:36:40.153Z,101074.18
2018-07-15T21:39:08.528Z,101071.91
2018-07-15T21:41:35.565Z,101072.14
2018-07-15T21:44:02.672Z,101069.97
2018-07-15T21:46:29.679Z,101071.69
2018-07-15T21:48:56.696Z,101069.52
2018-07-15T21:51:23.715Z,101076.38
2018-07-15T21:53:50.748Z,101076.48
2018-07-15T21:56:17.837Z,101078.43
2018-07-15T21:58:45.892Z,101076.45
2018-07-15T22:01:12.920Z,101081.72
2018-07-15T22:03:39.956Z,101083.44
2018-07-15T22:06:17.290Z,101078.61
2018-07-15T22:08:55.784Z,101078.06
2018-07-15T22:11:22.908Z,101083.89
2018-07-15T22:13:49.925Z,101081.05
2018-07-15T22:16:17.361Z,101083.23
2018-07-15T22:18:44.624Z,101089.12
2018-07-15T22:21:11.736Z,101089.34
2018-07-15T22:23:38.788Z,101087.69
2018-07-15T22:26:05.844Z,101088.58
2018-07-15T22:28:33.281Z,101089.83
2018-07-15T22:31:00.493Z,101088.55
2018-07-15T22:33:27.948Z,101088.59
2018-07-15T22:35:55.046Z,101086.70
2018-07-15T22:38:22.176Z,101086.48
2018-07-15T22:40:49.201Z,101086.36
2018-07-15T22:43:16.281Z,101082.78
2018-07-15T22:45:43.317Z,101087.74
2018-07-15T22:48:11.233Z,101088.80
2018-07-15T22:50:38.592Z,101092.38
2018-07-15T22:53:05.697Z,101087.86
2018-07-15T22:55:32.713Z,101088.48
2018-07-15T22:57:59.734Z,101089.47
2018-07-15T23:00:26.728Z,101092.25
2018-07-15T23:02:53.777Z,101083.94
2018-07-15T23:05:36.932Z,101082.17
2018-07-15T23:08:04.632Z,101078.20
2018-07-15T23:10:31.715Z,101075.90
2018-07-15T23:12:58.737Z,101074.58
2018-07-15T23:15:25.866Z,101076.51
2018-07-15T23:17:52.925Z,101079.70
2018-07-15T23:20:19.957Z,101076.45
2018-07-15T23:22:47.396Z,101073.30
2018-07-15T23:25:14.400Z,101080.21
2018-07-15T23:27:41.405Z,101070.57
2018-07-15T23:30:08.440Z,101068.36
2018-07-15T23:32:35.532Z,101065.97
2018-07-15T23:35:02.631Z,101071.11
2018-07-15T23:37:30.066Z,101061.86
2018-07-15T23:39:57.117Z,101067.75
2018-07-15T23:42:24.125Z,101065.80
2018-07-15T23:44:51.238Z,101063.53
2018-07-15T23:47:18.317Z,101064.21
2018-07-15T23:49:45.408Z,101063.69
2018-07-15T23:52:12.781Z,101064.77
2018-07-15T23:54:39.808Z,101062.51
2018-07-15T23:57:07.618Z,101062.83
2018-07-15T23:59:34.626Z,101060.24
